HTSO

Songea Airport

Airport
ICAO code
HTSO
IATA Code
SGX
Summary
ICAO Region
AFI
ICAO Territory
Location

Songea, Ruvuma Region

Serving
Songea
Elevation
3445 ft
Coordinates
10° 40' 60" S , 35° 34' 60" E
KCC
Metar
Observation
HTSO 070700Z 03007KT 9999 FEW020 23/12 Q1023
Station
Songea
Date/Time
2022-10-07 07:00:00
Wind direction
30°
Wind speed
07 kts
Lowest cloud amount
few clouds
Temperature
23°C
Dew point
12°C
Humidity
49%
QNH
1023 hPa
Weather condition
n/a

Songea Airport is an airport in southern Tanzania serving the town of Songea and the surrounding Ruvuma Region.

Climatology

Humid subtropical climate (Köppen climate classification Cwa)

Airport map

Aerial View

SKYbrary Partners:

Safety knowledge contributed by: